Time;durP1;ratioP1;P1;durP2;ratioP2;P2;SDS_P1;SDS_P2;PMS_P1;PMS_P2;Temp;Humidity;BMP_temperature;BMP_pressure;BME280_temperature;BME280_humidity;BME280_pressure;Samples;Min_cycle;Max_cycle;Signal;HPM_P1;HPM_P2
2021/08/22 00:01:07;;;;;;;5.53;5.03;;;;;;;20.07;61.94;100856.59;4982513;28;20053;-52
2021/08/22 00:03:32;;;;;;;5.20;4.72;;;;;;;20.06;61.94;100853.03;4991219;28;20038;-52
2021/08/22 00:05:58;;;;;;;5.57;5.07;;;;;;;20.06;61.91;100849.47;4994393;28;20031;-52
2021/08/22 00:08:23;;;;;;;5.30;4.80;;;;;;;20.07;61.96;100848.56;4998193;28;20073;-52
2021/08/22 00:10:48;;;;;;;4.75;4.35;;;;;;;20.07;62.12;100840.53;5000711;28;20022;-52
2021/08/22 00:13:14;;;;;;;5.30;4.80;;;;;;;20.06;61.98;100836.09;5000436;28;20078;-52
2021/08/22 00:15:39;;;;;;;7.47;5.63;;;;;;;20.06;61.96;100836.09;4996912;28;20041;-53
2021/08/22 00:18:04;;;;;;;5.40;4.90;;;;;;;20.05;61.93;100837.94;4997300;28;20084;-54
2021/08/22 00:20:30;;;;;;;6.25;5.13;;;;;;;20.05;61.87;100829.91;4999242;28;20034;-52
2021/08/22 00:22:55;;;;;;;5.05;4.65;;;;;;;20.05;61.88;100826.34;4982657;28;20161;-52
2021/08/22 00:25:20;;;;;;;5.80;5.20;;;;;;;20.04;61.95;100825.47;4993632;28;20112;-52
2021/08/22 00:27:46;;;;;;;5.78;5.28;;;;;;;20.05;61.87;100820.97;4975498;28;20054;-52
2021/08/22 00:30:11;;;;;;;5.55;5.05;;;;;;;20.04;61.82;100820.09;4999314;28;20116;-52
2021/08/22 00:32:36;;;;;;;5.00;4.60;;;;;;;20.03;62.04;100818.38;4995766;28;20173;-52
2021/08/22 00:35:02;;;;;;;5.35;4.85;;;;;;;20.05;61.87;100815.63;4992390;28;20082;-52
2021/08/22 00:37:28;;;;;;;6.22;5.05;;;;;;;20.03;61.83;100815.69;4994840;28;20062;-52
2021/08/22 00:39:54;;;;;;;4.95;4.55;;;;;;;20.03;61.89;100820.19;4997745;28;20018;-52
2021/08/22 00:42:20;;;;;;;5.40;4.72;;;;;;;20.03;61.84;100814.81;4980693;28;20038;-52
2021/08/22 00:44:45;;;;;;;5.68;5.18;;;;;;;20.03;61.89;100815.69;4996331;28;20022;-52
2021/08/22 00:47:10;;;;;;;5.50;5.00;;;;;;;20.01;61.85;100804.22;4994521;28;20054;-52
2021/08/22 00:49:36;;;;;;;5.85;5.10;;;;;;;20.01;61.99;100804.22;4979709;28;20152;-52
2021/08/22 00:52:01;;;;;;;5.45;4.95;;;;;;;20.02;61.96;100802.38;4980169;28;20038;-52
2021/08/22 00:54:26;;;;;;;5.75;5.25;;;;;;;20.00;61.81;100791.75;5000669;28;20398;-52
2021/08/22 00:56:52;;;;;;;5.78;5.28;;;;;;;20.00;61.91;100791.75;4975540;28;20038;-52
2021/08/22 00:59:19;;;;;;;6.18;5.03;;;;;;;20.00;61.88;100787.28;4996365;28;20108;-52
2021/08/22 01:01:48;;;;;;;5.63;5.10;;;;;;;20.00;61.87;100783.72;5000288;28;20514;-52
2021/08/22 01:04:17;;;;;;;5.50;5.00;;;;;;;20.00;61.90;100775.69;4982337;28;20052;-52
2021/08/22 01:07:12;;;;;;;5.88;5.30;;;;;;;19.99;61.89;100781.97;4997801;28;20283;-52
2021/08/22 01:09:44;;;;;;;5.00;4.60;;;;;;;19.99;61.74;100774.84;4998795;28;20018;-52
2021/08/22 01:12:28;;;;;;;5.88;5.00;;;;;;;19.99;61.75;100784.63;5000266;28;20371;-52
2021/08/22 01:14:57;;;;;;;5.15;4.75;;;;;;;19.98;61.88;100774.88;4994562;28;20521;-52
2021/08/22 01:17:24;;;;;;;5.78;5.28;;;;;;;19.98;61.81;100778.41;4987523;28;20018;-52
2021/08/22 01:20:04;;;;;;;5.20;4.70;;;;;;;19.98;61.80;100766.84;4976577;28;20466;-52
2021/08/22 01:22:31;;;;;;;5.88;5.28;;;;;;;19.96;61.78;100766.91;5002965;28;20033;-51
2021/08/22 01:24:56;;;;;;;5.63;5.13;;;;;;;19.98;61.84;100774.88;4994954;28;20033;-52
2021/08/22 01:27:22;;;;;;;5.85;5.28;;;;;;;19.97;61.80;100765.97;4999613;28;20025;-51
2021/08/22 01:30:17;;;;;;;5.70;5.20;;;;;;;19.95;61.79;100767.88;5003171;28;20116;-54
2021/08/22 01:32:48;;;;;;;5.78;5.22;;;;;;;19.95;61.73;100770.53;4983598;28;20391;-52
2021/08/22 01:35:17;;;;;;;5.55;5.05;;;;;;;19.94;61.74;100766.09;4992827;28;20038;-51
2021/08/22 01:37:44;;;;;;;5.72;5.10;;;;;;;19.95;61.71;100766.97;4993767;28;20038;-51
2021/08/22 01:40:10;;;;;;;5.63;5.13;;;;;;;19.93;61.82;100768.84;4994331;28;20053;-52
2021/08/22 01:42:37;;;;;;;5.88;5.32;;;;;;;19.93;61.80;100763.50;4993599;28;20053;-52
2021/08/22 01:45:07;;;;;;;6.18;5.68;;;;;;;19.92;61.71;100759.97;4993870;28;20034;-51
2021/08/22 01:47:37;;;;;;;5.68;5.20;;;;;;;19.92;61.71;100761.78;4999361;28;20553;-52
2021/08/22 01:50:04;;;;;;;5.60;5.10;;;;;;;19.93;61.70;100760.81;4989174;28;20061;-52
2021/08/22 01:52:34;;;;;;;7.78;5.40;;;;;;;19.92;61.84;100757.28;5012127;28;20412;-52
2021/08/22 01:55:02;;;;;;;5.80;5.30;;;;;;;19.91;61.79;100760.88;4995469;28;20501;-51
2021/08/22 01:57:27;;;;;;;5.80;5.30;;;;;;;19.90;61.78;100759.16;4993103;28;20486;-50
2021/08/22 01:59:53;;;;;;;6.13;5.53;;;;;;;19.89;61.82;100757.44;4998798;28;20018;-50
2021/08/22 02:02:18;;;;;;;5.90;5.40;;;;;;;19.90;61.72;100750.28;4997699;28;20072;-52
2021/08/22 02:04:47;;;;;;;5.97;5.32;;;;;;;19.90;61.70;100747.63;4979194;28;20030;-51
2021/08/22 02:07:15;;;;;;;6.05;5.55;;;;;;;19.88;61.72;100740.50;4997540;28;20021;-50
2021/08/22 02:09:51;;;;;;;6.15;5.47;;;;;;;19.88;61.77;100740.50;4981888;28;20026;-51
2021/08/22 02:12:18;;;;;;;8.93;5.57;;;;;;;19.84;61.69;100738.91;5004045;28;20108;-50
2021/08/22 02:15:06;;;;;;;6.30;5.68;;;;;;;19.86;61.67;100747.75;4986865;28;20046;-50
2021/08/22 02:17:39;;;;;;;6.15;5.65;;;;;;;19.87;61.74;100748.59;4999823;28;20034;-51
2021/08/22 02:20:05;;;;;;;6.05;5.55;;;;;;;19.86;61.80;100752.22;4963448;28;20029;-51
2021/08/22 02:22:32;;;;;;;5.63;5.00;;;;;;;19.86;61.74;100752.22;4993889;28;20489;-50
2021/08/22 02:24:58;;;;;;;5.53;5.03;;;;;;;19.85;61.79;100746.00;4993150;28;20076;-52
2021/08/22 02:27:24;;;;;;;5.45;5.05;;;;;;;19.85;61.72;100737.97;4994250;28;20429;-50
2021/08/22 02:29:51;;;;;;;6.30;5.80;;;;;;;19.84;61.69;100732.72;4981052;28;20037;-53
2021/08/22 02:32:17;;;;;;;5.90;5.40;;;;;;;19.83;61.87;100729.16;4982273;28;20030;-50
2021/08/22 02:34:42;;;;;;;5.82;5.32;;;;;;;19.85;61.83;100726.41;4978898;28;20011;-50
2021/08/22 02:37:08;;;;;;;5.47;4.97;;;;;;;19.84;61.79;100714.81;4965905;28;20022;-51
2021/08/22 02:39:36;;;;;;;5.68;5.18;;;;;;;19.83;61.78;100705.06;4998962;28;20018;-53
2021/08/22 02:42:01;;;;;;;5.30;4.80;;;;;;;19.82;61.81;100706.03;4994989;28;20037;-51
2021/08/22 02:44:27;;;;;;;5.75;5.28;;;;;;;19.82;61.80;100697.13;4984991;28;20399;-50
2021/08/22 02:46:52;;;;;;;6.35;5.85;;;;;;;19.82;62.18;100691.75;4979589;28;20171;-51
2021/08/22 02:49:17;;;;;;;5.88;5.38;;;;;;;19.80;61.85;100689.16;5002026;28;20062;-51
2021/08/22 02:51:43;;;;;;;6.00;5.40;;;;;;;19.81;61.88;100700.75;4994440;28;20034;-51
2021/08/22 02:54:08;;;;;;;6.47;5.88;;;;;;;19.80;61.78;100689.16;5000747;28;20037;-52
2021/08/22 02:56:33;;;;;;;5.72;4.97;;;;;;;19.80;61.95;100682.94;4990477;28;20032;-51
2021/08/22 02:58:59;;;;;;;6.28;5.72;;;;;;;19.80;61.72;100683.81;4980740;28;20037;-51
2021/08/22 03:01:24;;;;;;;5.38;4.95;;;;;;;19.80;61.97;100691.84;4991139;28;20058;-51
2021/08/22 03:03:49;;;;;;;6.15;5.60;;;;;;;19.78;61.89;100683.03;4994763;28;20054;-51
2021/08/22 03:06:15;;;;;;;5.72;5.25;;;;;;;19.78;61.84;100687.50;4997098;28;20414;-51
2021/08/22 03:08:40;;;;;;;5.80;5.32;;;;;;;19.77;62.06;100678.59;4962467;28;20585;-50
2021/08/22 03:11:05;;;;;;;6.20;5.60;;;;;;;19.77;61.74;100675.91;4997250;28;20390;-51
2021/08/22 03:13:31;;;;;;;5.72;5.22;;;;;;;19.75;62.04;100675.13;4999211;28;20049;-53
2021/08/22 03:15:56;;;;;;;6.72;6.18;;;;;;;19.77;62.02;100673.25;5006657;28;20028;-51
2021/08/22 03:18:21;;;;;;;5.90;5.38;;;;;;;19.75;61.95;100678.66;4998637;28;20026;-51
2021/08/22 03:20:47;;;;;;;5.97;5.47;;;;;;;19.75;61.97;100685.84;4997264;28;20030;-51
2021/08/22 03:23:12;;;;;;;5.95;5.30;;;;;;;19.74;62.18;100684.97;5001014;28;20076;-50
2021/08/22 03:25:38;;;;;;;6.50;5.90;;;;;;;19.75;62.05;100677.81;4997693;28;20038;-52
2021/08/22 03:28:04;;;;;;;5.63;5.13;;;;;;;19.73;61.93;100668.97;4995217;28;20044;-51
2021/08/22 03:30:29;;;;;;;5.60;5.10;;;;;;;19.73;62.00;100671.66;4970146;28;20030;-51
2021/08/22 03:32:55;;;;;;;5.68;5.18;;;;;;;19.73;62.00;100672.53;4967023;28;20038;-50
2021/08/22 03:35:20;;;;;;;6.18;5.25;;;;;;;19.72;62.02;100668.13;4982814;28;20049;-51
2021/08/22 03:37:45;;;;;;;6.68;5.97;;;;;;;19.72;62.12;100676.16;4985209;28;20505;-51
2021/08/22 03:40:11;;;;;;;5.90;5.32;;;;;;;19.72;61.99;100676.16;4965767;28;20029;-51
2021/08/22 03:42:37;;;;;;;5.85;5.32;;;;;;;19.71;62.02;100679.75;4966301;28;20030;-52
2021/08/22 03:45:02;;;;;;;5.60;5.15;;;;;;;19.71;62.10;100671.72;4982990;28;20026;-52
2021/08/22 03:47:27;;;;;;;6.22;5.70;;;;;;;19.71;62.28;100674.41;4973406;28;20026;-50
2021/08/22 03:49:53;;;;;;;5.70;5.20;;;;;;;19.69;62.12;100670.94;4963470;28;20488;-52
2021/08/22 03:52:18;;;;;;;6.05;5.43;;;;;;;19.69;62.03;100675.44;4961486;28;20062;-50
2021/08/22 03:54:44;;;;;;;5.80;5.40;;;;;;;19.69;62.01;100676.31;4997755;28;20558;-51
2021/08/22 03:57:09;;;;;;;5.80;5.30;;;;;;;19.69;62.03;100675.44;4978188;28;20034;-50
2021/08/22 03:59:35;;;;;;;5.95;5.35;;;;;;;19.68;62.05;100669.22;4983869;28;20072;-52
2021/08/22 04:02:00;;;;;;;7.10;5.75;;;;;;;19.67;62.08;100661.28;4980566;28;20074;-50
2021/08/22 04:04:25;;;;;;;5.75;5.25;;;;;;;19.68;62.05;100671.03;4983362;28;20030;-51
2021/08/22 04:06:52;;;;;;;6.00;5.40;;;;;;;19.67;62.26;100670.16;4982633;28;20092;-50
2021/08/22 04:09:18;;;;;;;7.05;5.22;;;;;;;19.67;62.12;100669.28;4968655;28;20025;-54
2021/08/22 04:11:44;;;;;;;5.88;5.38;;;;;;;19.65;62.09;100649.75;4982147;28;20101;-53
2021/08/22 04:14:10;;;;;;;5.72;5.22;;;;;;;19.65;62.14;100661.34;4990135;28;20109;-53
2021/08/22 04:16:35;;;;;;;6.22;5.57;;;;;;;19.66;62.03;100659.50;4971965;28;20108;-51
2021/08/22 04:19:01;;;;;;;5.80;5.05;;;;;;;19.65;62.03;100668.47;4969174;28;20072;-51
2021/08/22 04:21:26;;;;;;;6.15;5.55;;;;;;;19.63;62.12;100667.72;4972913;28;20015;-51
2021/08/22 04:23:51;;;;;;;6.03;5.53;;;;;;;19.62;62.06;100664.16;4979951;28;20037;-52
2021/08/22 04:26:17;;;;;;;6.43;5.78;;;;;;;19.63;62.11;100671.22;4979300;28;20026;-50
2021/08/22 04:28:42;;;;;;;6.15;5.45;;;;;;;19.63;62.22;100665.03;4965859;28;20027;-50
2021/08/22 04:31:08;;;;;;;5.90;5.35;;;;;;;19.61;62.15;100646.38;4993591;28;20030;-50
2021/08/22 04:33:33;;;;;;;5.55;5.05;;;;;;;19.60;62.07;100645.50;4987726;28;20664;-51
2021/08/22 04:35:58;;;;;;;5.88;5.38;;;;;;;19.61;62.24;100646.38;4984576;28;20013;-56
2021/08/22 04:38:24;;;;;;;5.72;5.22;;;;;;;19.60;61.94;100656.19;4996637;28;20026;-50
2021/08/22 04:40:49;;;;;;;6.05;5.45;;;;;;;19.60;62.24;100650.84;4993178;28;20023;-51
2021/08/22 04:43:14;;;;;;;5.55;5.05;;;;;;;19.59;62.10;100651.81;4991004;28;20018;-52
2021/08/22 04:45:39;;;;;;;5.57;5.07;;;;;;;19.60;62.15;100661.56;4995982;28;20057;-50
2021/08/22 04:48:05;;;;;;;5.75;5.25;;;;;;;19.58;62.21;100651.88;4982856;28;20022;-52
2021/08/22 04:50:30;;;;;;;5.68;5.10;;;;;;;19.59;61.94;100653.59;5005098;28;20160;-50
2021/08/22 04:52:56;;;;;;;6.05;5.55;;;;;;;19.58;61.97;100641.16;4980071;28;20498;-51
2021/08/22 04:55:21;;;;;;;6.03;5.43;;;;;;;19.57;62.30;100642.97;4992152;28;20019;-50
2021/08/22 04:57:46;;;;;;;6.78;6.18;;;;;;;19.58;62.16;100641.16;4997970;28;20027;-50
2021/08/22 05:00:12;;;;;;;5.47;4.97;;;;;;;19.57;62.12;100644.78;4984366;28;20013;-50
2021/08/22 05:02:38;;;;;;;5.63;5.13;;;;;;;19.56;62.18;100643.03;4983524;28;20030;-50
2021/08/22 05:05:03;;;;;;;5.45;5.00;;;;;;;19.54;62.08;100639.59;4962790;28;20035;-50
2021/08/22 05:07:29;;;;;;;6.45;5.50;;;;;;;19.54;62.18;100629.72;5001958;28;20408;-50
2021/08/22 05:09:54;;;;;;;5.65;5.13;;;;;;;19.56;62.28;100640.38;4986563;28;20105;-51
2021/08/22 05:12:19;;;;;;;5.78;5.28;;;;;;;19.55;62.23;100642.19;4979132;28;20537;-53
2021/08/22 05:14:45;;;;;;;5.68;5.18;;;;;;;19.53;62.24;100646.72;5005222;28;20049;-54
2021/08/22 05:17:11;;;;;;;5.80;5.30;;;;;;;19.54;62.08;100639.59;4994134;28;20463;-53
2021/08/22 05:19:37;;;;;;;6.38;5.63;;;;;;;19.54;62.31;100640.44;4994545;28;20022;-54
2021/08/22 05:22:02;;;;;;;5.97;5.38;;;;;;;19.53;62.17;100628.00;4994077;28;20042;-53
2021/08/22 05:24:29;;;;;;;6.00;5.50;;;;;;;19.53;62.16;100633.34;4998263;28;20375;-54
2021/08/22 05:26:54;;;;;;;5.40;4.90;;;;;;;19.53;62.19;100640.50;4999476;28;20038;-54
2021/08/22 05:29:20;;;;;;;6.70;6.10;;;;;;;19.52;62.39;100639.66;4997325;28;20038;-52
2021/08/22 05:31:45;;;;;;;5.55;5.05;;;;;;;19.52;62.25;100630.75;4996938;28;20049;-52
2021/08/22 05:34:10;;;;;;;6.55;5.93;;;;;;;19.52;62.18;100639.66;4992442;28;20023;-52
2021/08/22 05:36:37;;;;;;;5.82;5.32;;;;;;;19.50;62.31;100638.84;4996003;28;20033;-52
2021/08/22 05:39:03;;;;;;;6.40;5.80;;;;;;;19.52;62.29;100647.69;4995386;28;20421;-52
2021/08/22 05:41:28;;;;;;;5.72;5.22;;;;;;;19.50;62.26;100649.53;4993412;28;20022;-52
2021/08/22 05:43:53;;;;;;;5.97;5.38;;;;;;;19.51;62.30;100653.97;4992186;28;20411;-52
2021/08/22 05:46:19;;;;;;;5.93;5.43;;;;;;;19.49;62.37;100647.81;4980226;28;20049;-51
2021/08/22 05:48:44;;;;;;;6.07;5.57;;;;;;;19.48;62.30;100641.59;4996201;28;20928;-52
2021/08/22 05:51:14;;;;;;;5.53;5.03;;;;;;;19.48;62.34;100638.91;4993650;28;20026;-51
2021/08/22 05:53:41;;;;;;;6.65;5.90;;;;;;;19.49;62.26;100647.81;4993875;28;20030;-52
2021/08/22 05:56:08;;;;;;;5.68;5.18;;;;;;;19.48;62.40;100641.59;4994962;28;20030;-51
2021/08/22 05:58:34;;;;;;;7.25;5.65;;;;;;;19.48;62.41;100640.75;4979829;28;20053;-52
2021/08/22 06:00:59;;;;;;;5.55;5.07;;;;;;;19.46;62.45;100639.94;5002089;28;20510;-52
2021/08/22 06:03:24;;;;;;;5.85;5.35;;;;;;;19.47;62.42;100639.88;4975139;28;20022;-52
2021/08/22 06:05:50;;;;;;;6.05;5.47;;;;;;;19.46;62.45;100645.28;4991965;28;20041;-52
2021/08/22 06:08:16;;;;;;;6.45;5.53;;;;;;;19.46;62.45;100643.47;4980608;28;20127;-52
2021/08/22 06:10:41;;;;;;;5.65;4.88;;;;;;;19.45;62.51;100636.41;4996033;28;20433;-52
2021/08/22 06:13:07;;;;;;;5.95;5.45;;;;;;;19.45;62.38;100631.06;4995606;28;20026;-52
2021/08/22 06:15:32;;;;;;;6.53;5.93;;;;;;;19.44;62.55;100634.66;4996058;28;20026;-52
2021/08/22 06:17:58;;;;;;;6.55;5.88;;;;;;;19.45;62.46;100644.44;4993065;28;20116;-52
2021/08/22 06:20:23;;;;;;;6.20;5.70;;;;;;;19.44;62.41;100644.50;4977910;28;20018;-52
2021/08/22 06:22:48;;;;;;;6.38;5.55;;;;;;;19.44;62.67;100639.16;4977130;28;20053;-52
2021/08/22 06:25:13;;;;;;;5.93;5.43;;;;;;;19.44;62.53;100639.16;4994721;28;20461;-52
2021/08/22 06:27:39;;;;;;;6.55;5.95;;;;;;;19.42;62.50;100644.56;4997512;28;20037;-52
2021/08/22 06:30:05;;;;;;;6.63;5.93;;;;;;;19.43;62.49;100648.09;4993514;28;20046;-54
2021/08/22 06:32:30;;;;;;;6.75;6.03;;;;;;;19.42;62.45;100639.22;4992398;28;20050;-53
2021/08/22 06:34:55;;;;;;;6.63;5.93;;;;;;;19.41;62.60;100642.81;4994166;28;20105;-54
2021/08/22 06:37:21;;;;;;;6.10;5.60;;;;;;;19.41;62.57;100640.13;4994994;28;20025;-53
2021/08/22 06:39:48;;;;;;;6.68;6.07;;;;;;;19.42;62.53;100647.25;4993035;28;20030;-53
2021/08/22 06:42:14;;;;;;;6.97;6.40;;;;;;;19.42;62.52;100657.94;4977847;28;20034;-53
2021/08/22 06:44:39;;;;;;;6.72;6.00;;;;;;;19.40;62.70;100654.47;4978398;28;20038;-54
2021/08/22 06:47:06;;;;;;;6.20;5.70;;;;;;;19.41;62.68;100661.53;4994553;28;20026;-54
2021/08/22 06:49:31;;;;;;;6.60;6.00;;;;;;;19.40;62.46;100654.47;4993923;28;20014;-54
2021/08/22 06:51:57;;;;;;;7.65;6.78;;;;;;;19.40;62.70;100670.50;4990822;28;20034;-52
2021/08/22 06:54:22;;;;;;;7.20;6.60;;;;;;;19.41;62.72;100664.22;4990329;28;20026;-54
2021/08/22 06:56:47;;;;;;;7.18;6.43;;;;;;;19.41;62.66;100661.53;4995359;28;20022;-54
2021/08/22 06:59:13;;;;;;;7.53;6.80;;;;;;;19.39;62.83;100662.53;4999010;28;20025;-53
2021/08/22 07:01:38;;;;;;;6.90;6.30;;;;;;;19.40;62.68;100666.97;4996317;28;20034;-54
2021/08/22 07:04:04;;;;;;;7.30;6.70;;;;;;;19.40;62.68;100672.31;4993516;28;20271;-53
2021/08/22 07:06:29;;;;;;;7.85;7.13;;;;;;;19.40;62.75;100672.31;4998594;28;20389;-53
2021/08/22 07:08:55;;;;;;;7.20;6.60;;;;;;;19.39;62.66;100670.56;4992499;28;20521;-53
2021/08/22 07:11:21;;;;;;;8.43;7.72;;;;;;;19.39;63.07;100670.56;4993363;28;20053;-53
2021/08/22 07:13:46;;;;;;;7.07;6.47;;;;;;;19.38;62.97;100677.75;4994226;28;20026;-53
2021/08/22 07:16:11;;;;;;;7.72;6.93;;;;;;;19.39;62.81;100683.94;4995463;28;20014;-54
2021/08/22 07:18:37;;;;;;;7.18;6.50;;;;;;;19.39;62.83;100678.59;4992400;28;20023;-53
2021/08/22 07:21:04;;;;;;;8.73;7.82;;;;;;;19.39;62.75;100683.94;4993374;28;20545;-53
2021/08/22 07:23:30;;;;;;;7.72;6.93;;;;;;;19.38;62.72;100676.88;4994852;28;20046;-54
2021/08/22 07:25:55;;;;;;;8.13;7.43;;;;;;;19.37;62.98;100681.34;4974060;28;20509;-53
2021/08/22 07:28:20;;;;;;;7.28;6.57;;;;;;;19.35;62.88;100684.06;4995541;28;20421;-53
2021/08/22 07:30:46;;;;;;;7.88;7.18;;;;;;;19.36;62.94;100696.53;4997984;28;20034;-53
2021/08/22 07:33:11;;;;;;;7.88;7.10;;;;;;;19.37;62.97;100692.03;4998966;28;20037;-54
2021/08/22 07:35:36;;;;;;;7.00;6.40;;;;;;;19.37;62.89;100684.00;4962062;28;20033;-53
2021/08/22 07:38:01;;;;;;;7.18;6.57;;;;;;;19.37;62.91;100697.38;4995085;28;20027;-53
2021/08/22 07:40:27;;;;;;;8.07;6.78;;;;;;;19.35;62.91;100697.44;4991878;28;20026;-54
2021/08/22 07:42:52;;;;;;;7.72;6.93;;;;;;;19.36;62.93;100696.53;4997244;28;20022;-53
2021/08/22 07:45:17;;;;;;;7.70;7.00;;;;;;;19.36;62.91;100703.66;4996917;28;20374;-54
2021/08/22 07:47:44;;;;;;;8.25;7.45;;;;;;;19.35;62.98;100709.97;4999308;28;20050;-49
2021/08/22 07:50:10;;;;;;;8.27;6.90;;;;;;;19.34;62.93;100709.09;4996030;28;20441;-50
2021/08/22 07:52:35;;;;;;;9.15;8.27;;;;;;;19.35;63.00;100718.00;4993758;28;20121;-51
2021/08/22 07:55:00;;;;;;;7.90;7.20;;;;;;;19.34;62.93;100714.44;4986970;28;20580;-50
2021/08/22 07:57:25;;;;;;;7.07;6.38;;;;;;;19.35;62.98;100720.66;4996718;28;20488;-51
2021/08/22 07:59:51;;;;;;;7.95;7.00;;;;;;;19.34;63.07;100719.78;5000371;28;20374;-50
2021/08/22 08:02:16;;;;;;;7.70;7.00;;;;;;;19.33;63.05;100723.41;4995303;28;20105;-52
2021/08/22 08:04:41;;;;;;;7.90;7.20;;;;;;;19.33;63.02;100728.75;4980484;28;20022;-51
2021/08/22 08:07:07;;;;;;;7.88;7.18;;;;;;;19.35;63.05;100728.69;4995120;28;20097;-51
2021/08/22 08:09:32;;;;;;;7.50;6.70;;;;;;;19.35;62.95;100734.88;4996409;28;20033;-50
2021/08/22 08:11:58;;;;;;;7.72;6.97;;;;;;;19.35;62.95;100729.53;5000455;28;20030;-51
2021/08/22 08:14:24;;;;;;;8.35;7.65;;;;;;;19.34;62.97;100725.13;4997582;28;20417;-50
2021/08/22 08:16:49;;;;;;;7.97;7.28;;;;;;;19.34;62.93;100722.47;4998422;28;20073;-50
2021/08/22 08:19:15;;;;;;;8.35;7.47;;;;;;;19.34;62.92;100730.47;4975907;28;20065;-51
2021/08/22 08:21:40;;;;;;;8.70;7.80;;;;;;;19.34;62.68;100722.47;4981682;28;20112;-50
2021/08/22 08:24:05;;;;;;;8.43;7.63;;;;;;;19.34;62.86;100730.47;4993676;28;20030;-51
2021/08/22 08:26:31;;;;;;;7.78;7.07;;;;;;;19.36;62.78;100725.94;4994455;28;20046;-50
2021/08/22 08:28:56;;;;;;;7.95;7.25;;;;;;;19.36;62.82;100727.75;4996988;28;20105;-53
2021/08/22 08:31:22;;;;;;;10.18;9.18;;;;;;;19.39;62.76;100732.06;4994957;28;20794;-50
2021/08/22 08:33:47;;;;;;;8.65;7.40;;;;;;;19.41;62.74;100735.56;4998666;28;20029;-50
2021/08/22 08:36:12;;;;;;;9.20;8.30;;;;;;;19.42;62.73;100738.16;4995390;28;20025;-52
2021/08/22 08:38:40;;;;;;;8.00;7.25;;;;;;;19.41;62.67;100735.56;4998630;28;20056;-51
2021/08/22 08:41:06;;;;;;;8.30;7.50;;;;;;;19.39;62.62;100735.63;4996797;28;20026;-51
2021/08/22 08:43:31;;;;;;;7.78;7.15;;;;;;;19.41;62.76;100730.22;4993121;28;20026;-54
2021/08/22 08:45:59;;;;;;;8.40;7.60;;;;;;;19.43;62.75;100731.00;4996429;28;20038;-52
2021/08/22 08:48:26;;;;;;;7.93;7.13;;;;;;;19.41;62.70;100720.38;4997376;28;20081;-52
2021/08/22 08:50:56;;;;;;;8.13;7.50;;;;;;;19.44;62.55;100724.72;5002978;28;20022;-52
2021/08/22 08:53:27;;;;;;;8.63;7.22;;;;;;;19.42;62.73;100724.78;5000901;28;20026;-52
2021/08/22 08:56:12;;;;;;;8.07;7.38;;;;;;;19.41;62.75;100724.88;4998902;28;20026;-52
2021/08/22 08:58:38;;;;;;;8.77;7.50;;;;;;;19.43;62.89;100723.84;4991731;28;20036;-52
2021/08/22 09:01:03;;;;;;;8.30;7.60;;;;;;;19.40;62.94;100718.63;4994344;23;20083;-51
2021/08/22 09:03:28;;;;;;;8.18;7.38;;;;;;;19.41;62.89;100719.50;4978530;28;20033;-52
2021/08/22 09:06:10;;;;;;;8.23;7.47;;;;;;;19.43;62.83;100722.97;5008919;28;20029;-53
2021/08/22 09:08:54;;;;;;;8.07;7.38;;;;;;;19.43;62.84;100718.50;4977870;28;20059;-52
2021/08/22 09:11:19;;;;;;;8.23;7.43;;;;;;;19.44;62.76;100730.09;5009834;28;20088;-57
2021/08/22 09:14:02;;;;;;;7.00;6.40;;;;;;;19.43;62.85;100723.84;5009727;28;20041;-54
2021/08/22 09:17:06;;;;;;;7.90;7.10;;;;;;;19.46;62.92;100721.03;5008252;28;20744;-53
2021/08/22 09:19:56;;;;;;;7.82;7.13;;;;;;;19.44;62.90;100730.09;5008132;28;20401;-52
2021/08/22 09:22:36;;;;;;;7.95;6.97;;;;;;;19.46;63.02;100729.06;5008755;28;20022;-51
2021/08/22 09:25:35;;;;;;;7.50;6.75;;;;;;;19.47;62.82;100724.56;5006829;28;20025;-52
2021/08/22 09:28:19;;;;;;;8.60;7.80;;;;;;;19.46;63.00;100726.41;5007130;28;20120;-51
2021/08/22 09:31:37;;;;;;;8.13;7.32;;;;;;;19.46;63.17;100728.19;5008075;28;20026;-51
2021/08/22 09:34:52;;;;;;;7.75;7.05;;;;;;;19.47;63.07;100729.91;5007147;28;20026;-51
2021/08/22 09:37:39;;;;;;;8.10;7.30;;;;;;;19.49;62.94;100736.06;5006967;28;20033;-50
2021/08/22 09:40:36;;;;;;;7.15;6.55;;;;;;;19.50;62.97;100729.78;5005486;28;20458;-52
2021/08/22 09:43:38;;;;;;;10.30;8.15;;;;;;;19.51;63.31;100739.56;5005811;28;20034;-50
2021/08/22 09:46:07;;;;;;;7.10;6.47;;;;;;;19.50;63.15;100735.13;4988220;28;20061;-53
2021/08/22 09:49:06;;;;;;;8.07;7.28;;;;;;;19.49;63.26;100736.97;5003179;28;20105;-51
2021/08/22 09:51:56;;;;;;;7.85;7.15;;;;;;;19.49;63.31;100739.63;5009375;28;20021;-54
2021/08/22 09:54:41;;;;;;;8.27;7.10;;;;;;;19.53;63.30;100739.47;5009266;28;20022;-54
2021/08/22 09:57:44;;;;;;;8.75;7.85;;;;;;;19.51;63.25;100746.72;5008647;28;20489;-52
2021/08/22 10:00:10;;;;;;;7.78;7.07;;;;;;;19.53;63.30;100745.69;5006652;28;20659;-50
2021/08/22 10:03:20;;;;;;;8.53;7.63;;;;;;;19.53;63.38;100748.38;5006100;28;20113;-53
2021/08/22 10:06:13;;;;;;;7.63;7.03;;;;;;;19.53;63.46;100751.03;5007714;28;20362;-51
2021/08/22 10:09:02;;;;;;;7.95;7.15;;;;;;;19.54;63.52;100758.13;5008981;28;20026;-54
2021/08/22 10:11:34;;;;;;;7.45;6.75;;;;;;;19.53;63.34;100748.38;4995913;28;20129;-52
2021/08/22 10:14:00;;;;;;;8.05;7.32;;;;;;;19.53;63.44;100752.84;5001967;28;20686;-52
2021/08/22 10:16:25;;;;;;;8.07;7.30;;;;;;;19.52;63.49;100749.31;5007407;28;20042;-52
2021/08/22 10:18:51;;;;;;;7.05;6.45;;;;;;;19.51;63.39;100752.94;5009820;28;20528;-51
2021/08/22 10:21:26;;;;;;;7.80;7.10;;;;;;;19.53;63.55;100756.41;4976558;28;20083;-50
2021/08/22 10:23:54;;;;;;;8.15;7.45;;;;;;;19.55;63.47;100757.22;5004342;28;20036;-51
2021/08/22 10:26:46;;;;;;;7.63;6.93;;;;;;;19.55;63.52;100749.19;5009320;28;20096;-52
2021/08/22 10:29:32;;;;;;;7.63;6.93;;;;;;;19.56;63.44;100753.59;5007897;28;20037;-52
2021/08/22 10:32:04;;;;;;;8.30;7.50;;;;;;;19.55;63.53;100749.19;5008094;28;20022;-54
2021/08/22 10:34:34;;;;;;;8.20;7.40;;;;;;;19.57;63.50;100757.97;5007557;28;20026;-51
2021/08/22 10:37:00;;;;;;;8.80;8.00;;;;;;;19.58;63.30;100753.50;4987723;28;20033;-53
2021/08/22 10:39:27;;;;;;;7.57;6.97;;;;;;;19.56;63.41;100750.91;4988604;28;20027;-51
2021/08/22 10:41:56;;;;;;;6.88;6.28;;;;;;;19.56;63.67;100756.25;4974446;28;20028;-52
2021/08/22 10:44:38;;;;;;;7.80;7.07;;;;;;;19.58;63.37;100748.16;5004220;28;20031;-52
2021/08/22 10:47:04;;;;;;;7.28;6.57;;;;;;;19.59;63.41;100750.78;5004389;28;20029;-52
2021/08/22 10:49:54;;;;;;;7.50;6.80;;;;;;;19.64;63.35;100741.66;5004049;28;20105;-51
2021/08/22 10:52:22;;;;;;;8.15;7.38;;;;;;;19.63;63.42;100738.09;5006188;28;20064;-52
2021/08/22 10:55:13;;;;;;;7.80;7.10;;;;;;;19.60;63.44;100735.56;5004394;28;20786;-52
2021/08/22 10:57:44;;;;;;;7.68;6.97;;;;;;;19.59;63.53;100740.06;5005394;28;20030;-51
2021/08/22 11:00:34;;;;;;;8.48;7.13;;;;;;;19.61;63.41;100738.19;5004566;28;20048;-51
2021/08/22 11:03:00;;;;;;;7.20;6.45;;;;;;;19.63;63.45;100739.94;5005565;28;20481;-52
2021/08/22 11:05:36;;;;;;;7.82;7.10;;;;;;;19.61;63.49;100731.97;5007540;28;20482;-53
2021/08/22 11:08:13;;;;;;;7.70;7.10;;;;;;;19.62;63.48;100736.38;5008401;28;20040;-52
2021/08/22 11:10:39;;;;;;;7.35;6.75;;;;;;;19.64;63.58;100736.31;5007428;28;20026;-53
2021/08/22 11:13:04;;;;;;;7.38;6.78;;;;;;;19.65;63.35;100730.00;5008746;28;20072;-52
2021/08/22 11:15:31;;;;;;;6.93;6.22;;;;;;;19.66;63.46;100729.94;5004141;28;20025;-52
2021/08/22 11:17:58;;;;;;;7.60;6.88;;;;;;;19.66;63.50;100732.63;5009922;28;20025;-52
2021/08/22 11:20:29;;;;;;;7.13;6.50;;;;;;;19.65;63.59;100736.25;5013067;28;20413;-52
2021/08/22 11:23:07;;;;;;;;;;;;;;;19.67;63.48;100733.50;5011412;28;20041;-53
2021/08/22 11:25:34;;;;;;;7.63;6.90;;;;;;;19.66;63.52;100737.09;5009029;28;20011;-52
2021/08/22 11:28:10;;;;;;;8.32;7.53;;;;;;;19.66;63.57;100731.75;5009821;28;20031;-52
2021/08/22 11:30:37;;;;;;;7.53;6.88;;;;;;;19.67;63.70;100733.50;4993658;28;20432;-54
2021/08/22 11:33:03;;;;;;;8.23;6.72;;;;;;;19.68;63.72;100732.56;5011660;28;20037;-52